sensor_id;sensor_type;location;lat;lon;timestamp;temperature;humidity
5881;DHT22;2966;52.598;10.928;2022-09-21T00:01:19;5.80;99.90
5881;DHT22;2966;52.598;10.928;2022-09-21T00:03:47;5.70;99.90
5881;DHT22;2966;52.598;10.928;2022-09-21T00:06:17;5.70;99.90
5881;DHT22;2966;52.598;10.928;2022-09-21T00:08:46;5.70;99.90
5881;DHT22;2966;52.598;10.928;2022-09-21T00:11:14;5.70;99.90
5881;DHT22;2966;52.598;10.928;2022-09-21T00:13:41;5.70;99.90
5881;DHT22;2966;52.598;10.928;2022-09-21T00:16:10;5.60;99.90
5881;DHT22;2966;52.598;10.928;2022-09-21T00:18:37;5.60;99.90
5881;DHT22;2966;52.598;10.928;2022-09-21T00:21:06;5.60;99.90
5881;DHT22;2966;52.598;10.928;2022-09-21T00:23:33;5.60;99.90
5881;DHT22;2966;52.598;10.928;2022-09-21T00:26:06;5.50;99.90
5881;DHT22;2966;52.598;10.928;2022-09-21T00:28:33;5.50;99.90
5881;DHT22;2966;52.598;10.928;2022-09-21T00:31:01;5.50;99.90
5881;DHT22;2966;52.598;10.928;2022-09-21T00:33:28;5.40;99.90
5881;DHT22;2966;52.598;10.928;2022-09-21T00:36:00;5.40;99.90
5881;DHT22;2966;52.598;10.928;2022-09-21T00:38:26;5.40;99.90
5881;DHT22;2966;52.598;10.928;2022-09-21T00:40:53;5.40;99.90
5881;DHT22;2966;52.598;10.928;2022-09-21T00:43:21;5.40;99.90
5881;DHT22;2966;52.598;10.928;2022-09-21T00:45:58;5.40;99.90
5881;DHT22;2966;52.598;10.928;2022-09-21T00:48:27;5.40;99.90
5881;DHT22;2966;52.598;10.928;2022-09-21T00:50:57;5.40;99.90
5881;DHT22;2966;52.598;10.928;2022-09-21T00:53:25;5.40;99.90
5881;DHT22;2966;52.598;10.928;2022-09-21T00:55:56;5.30;99.90
5881;DHT22;2966;52.598;10.928;2022-09-21T00:58:28;5.30;99.90
5881;DHT22;2966;52.598;10.928;2022-09-21T01:00:57;5.30;99.90
5881;DHT22;2966;52.598;10.928;2022-09-21T01:03:25;5.30;99.90
5881;DHT22;2966;52.598;10.928;2022-09-21T01:05:53;5.30;99.90
5881;DHT22;2966;52.598;10.928;2022-09-21T01:08:20;5.40;99.90
5881;DHT22;2966;52.598;10.928;2022-09-21T01:11:01;5.30;99.90
5881;DHT22;2966;52.598;10.928;2022-09-21T01:13:41;5.30;99.90
5881;DHT22;2966;52.598;10.928;2022-09-21T01:16:14;5.40;99.90
5881;DHT22;2966;52.598;10.928;2022-09-21T01:18:47;5.40;99.90
5881;DHT22;2966;52.598;10.928;2022-09-21T01:21:18;5.30;99.90
5881;DHT22;2966;52.598;10.928;2022-09-21T01:24:18;5.20;99.90
5881;DHT22;2966;52.598;10.928;2022-09-21T01:27:03;5.30;99.90
5881;DHT22;2966;52.598;10.928;2022-09-21T01:29:32;5.20;99.90
5881;DHT22;2966;52.598;10.928;2022-09-21T01:32:05;5.20;99.90
5881;DHT22;2966;52.598;10.928;2022-09-21T01:34:36;5.20;99.90
5881;DHT22;2966;52.598;10.928;2022-09-21T01:37:08;5.30;99.90
5881;DHT22;2966;52.598;10.928;2022-09-21T01:39:38;5.30;99.90
5881;DHT22;2966;52.598;10.928;2022-09-21T01:42:09;5.20;99.90
5881;DHT22;2966;52.598;10.928;2022-09-21T01:44:39;5.10;99.90
5881;DHT22;2966;52.598;10.928;2022-09-21T01:47:09;5.10;99.90
5881;DHT22;2966;52.598;10.928;2022-09-21T01:49:42;5.00;99.90
5881;DHT22;2966;52.598;10.928;2022-09-21T01:52:14;5.00;99.90
5881;DHT22;2966;52.598;10.928;2022-09-21T01:54:44;5.00;99.90
5881;DHT22;2966;52.598;10.928;2022-09-21T01:57:17;5.00;99.90
5881;DHT22;2966;52.598;10.928;2022-09-21T01:59:51;5.00;99.90
5881;DHT22;2966;52.598;10.928;2022-09-21T02:02:22;5.00;99.90
5881;DHT22;2966;52.598;10.928;2022-09-21T02:04:50;5.00;99.90
5881;DHT22;2966;52.598;10.928;2022-09-21T02:07:17;5.00;99.90
5881;DHT22;2966;52.598;10.928;2022-09-21T02:09:45;4.90;99.90
5881;DHT22;2966;52.598;10.928;2022-09-21T02:12:12;4.90;99.90
5881;DHT22;2966;52.598;10.928;2022-09-21T02:14:39;4.80;99.90
5881;DHT22;2966;52.598;10.928;2022-09-21T02:17:17;4.90;99.90
5881;DHT22;2966;52.598;10.928;2022-09-21T02:19:52;4.90;99.90
5881;DHT22;2966;52.598;10.928;2022-09-21T02:22:27;5.00;99.90
5881;DHT22;2966;52.598;10.928;2022-09-21T02:25:05;5.00;99.90
5881;DHT22;2966;52.598;10.928;2022-09-21T02:27:37;4.90;99.90
5881;DHT22;2966;52.598;10.928;2022-09-21T02:30:08;4.90;99.90
5881;DHT22;2966;52.598;10.928;2022-09-21T02:32:43;4.90;99.90
5881;DHT22;2966;52.598;10.928;2022-09-21T02:35:21;4.90;99.90
5881;DHT22;2966;52.598;10.928;2022-09-21T02:38:00;4.80;99.90
5881;DHT22;2966;52.598;10.928;2022-09-21T02:40:34;4.80;99.90
5881;DHT22;2966;52.598;10.928;2022-09-21T02:43:06;4.70;99.90
5881;DHT22;2966;52.598;10.928;2022-09-21T02:45:38;4.80;99.90
5881;DHT22;2966;52.598;10.928;2022-09-21T02:48:11;4.70;99.90
5881;DHT22;2966;52.598;10.928;2022-09-21T02:50:43;4.70;99.90
5881;DHT22;2966;52.598;10.928;2022-09-21T02:53:12;4.70;99.90
5881;DHT22;2966;52.598;10.928;2022-09-21T02:55:39;4.60;99.90
5881;DHT22;2966;52.598;10.928;2022-09-21T02:58:09;4.60;99.90
5881;DHT22;2966;52.598;10.928;2022-09-21T03:00:37;4.60;99.90
5881;DHT22;2966;52.598;10.928;2022-09-21T03:03:15;4.70;99.90
5881;DHT22;2966;52.598;10.928;2022-09-21T03:05:43;4.70;99.90
5881;DHT22;2966;52.598;10.928;2022-09-21T03:08:10;4.70;99.90
5881;DHT22;2966;52.598;10.928;2022-09-21T03:10:37;4.70;99.90
5881;DHT22;2966;52.598;10.928;2022-09-21T03:13:05;4.70;99.90
5881;DHT22;2966;52.598;10.928;2022-09-21T03:15:33;4.60;99.90
5881;DHT22;2966;52.598;10.928;2022-09-21T03:18:00;4.60;99.90
5881;DHT22;2966;52.598;10.928;2022-09-21T03:20:29;4.60;99.90
5881;DHT22;2966;52.598;10.928;2022-09-21T03:22:57;4.60;99.90
5881;DHT22;2966;52.598;10.928;2022-09-21T03:25:24;4.60;99.90
5881;DHT22;2966;52.598;10.928;2022-09-21T03:27:50;4.60;99.90
5881;DHT22;2966;52.598;10.928;2022-09-21T03:30:18;4.60;99.90
5881;DHT22;2966;52.598;10.928;2022-09-21T03:32:45;4.60;99.90
5881;DHT22;2966;52.598;10.928;2022-09-21T03:35:14;4.50;99.90
5881;DHT22;2966;52.598;10.928;2022-09-21T03:37:42;4.50;99.90
5881;DHT22;2966;52.598;10.928;2022-09-21T03:40:09;4.50;99.90
5881;DHT22;2966;52.598;10.928;2022-09-21T03:42:37;4.50;99.90
5881;DHT22;2966;52.598;10.928;2022-09-21T03:45:04;4.40;99.90
5881;DHT22;2966;52.598;10.928;2022-09-21T03:47:31;4.50;99.90
5881;DHT22;2966;52.598;10.928;2022-09-21T03:49:58;4.50;99.90
5881;DHT22;2966;52.598;10.928;2022-09-21T03:52:24;4.40;99.90
5881;DHT22;2966;52.598;10.928;2022-09-21T03:54:53;4.40;99.90
5881;DHT22;2966;52.598;10.928;2022-09-21T03:57:20;4.40;99.90
5881;DHT22;2966;52.598;10.928;2022-09-21T03:59:47;4.40;99.90
5881;DHT22;2966;52.598;10.928;2022-09-21T04:02:13;4.30;99.90
5881;DHT22;2966;52.598;10.928;2022-09-21T04:04:40;4.30;99.90
5881;DHT22;2966;52.598;10.928;2022-09-21T04:07:07;4.20;99.90
5881;DHT22;2966;52.598;10.928;2022-09-21T04:09:34;4.20;99.90
5881;DHT22;2966;52.598;10.928;2022-09-21T04:12:02;4.20;99.90
5881;DHT22;2966;52.598;10.928;2022-09-21T04:14:29;4.10;99.90
5881;DHT22;2966;52.598;10.928;2022-09-21T04:16:55;4.20;99.90
5881;DHT22;2966;52.598;10.928;2022-09-21T04:19:22;4.20;99.90
5881;DHT22;2966;52.598;10.928;2022-09-21T04:21:49;4.20;99.90
5881;DHT22;2966;52.598;10.928;2022-09-21T04:24:17;4.20;99.90
5881;DHT22;2966;52.598;10.928;2022-09-21T04:26:44;4.20;99.90
5881;DHT22;2966;52.598;10.928;2022-09-21T04:29:13;4.20;99.90
5881;DHT22;2966;52.598;10.928;2022-09-21T04:31:40;4.10;99.90
5881;DHT22;2966;52.598;10.928;2022-09-21T04:34:08;4.10;99.90
5881;DHT22;2966;52.598;10.928;2022-09-21T04:36:37;4.10;99.90
5881;DHT22;2966;52.598;10.928;2022-09-21T04:39:05;4.10;99.90
5881;DHT22;2966;52.598;10.928;2022-09-21T04:41:32;4.00;99.90
5881;DHT22;2966;52.598;10.928;2022-09-21T04:43:59;4.10;99.90
5881;DHT22;2966;52.598;10.928;2022-09-21T04:46:27;4.10;99.90
5881;DHT22;2966;52.598;10.928;2022-09-21T04:48:54;4.10;99.90
5881;DHT22;2966;52.598;10.928;2022-09-21T04:51:21;4.10;99.90
5881;DHT22;2966;52.598;10.928;2022-09-21T04:53:48;4.10;99.90
5881;DHT22;2966;52.598;10.928;2022-09-21T04:56:14;4.00;99.90
5881;DHT22;2966;52.598;10.928;2022-09-21T04:58:41;4.00;99.90
5881;DHT22;2966;52.598;10.928;2022-09-21T05:01:08;3.90;99.90
5881;DHT22;2966;52.598;10.928;2022-09-21T05:03:37;3.90;99.90
5881;DHT22;2966;52.598;10.928;2022-09-21T05:06:04;3.90;99.90
5881;DHT22;2966;52.598;10.928;2022-09-21T05:08:31;3.90;99.90
5881;DHT22;2966;52.598;10.928;2022-09-21T05:11:17;3.90;99.90
5881;DHT22;2966;52.598;10.928;2022-09-21T05:13:44;3.90;99.90
5881;DHT22;2966;52.598;10.928;2022-09-21T05:16:12;3.90;99.90
5881;DHT22;2966;52.598;10.928;2022-09-21T05:18:40;3.90;99.90
5881;DHT22;2966;52.598;10.928;2022-09-21T05:21:08;3.90;99.90
5881;DHT22;2966;52.598;10.928;2022-09-21T05:23:35;4.00;99.90
5881;DHT22;2966;52.598;10.928;2022-09-21T05:26:02;3.90;99.90
5881;DHT22;2966;52.598;10.928;2022-09-21T05:28:29;4.00;99.90
5881;DHT22;2966;52.598;10.928;2022-09-21T05:30:59;4.00;99.90
5881;DHT22;2966;52.598;10.928;2022-09-21T05:33:28;4.00;99.90
5881;DHT22;2966;52.598;10.928;2022-09-21T05:36:04;4.00;99.90
5881;DHT22;2966;52.598;10.928;2022-09-21T05:38:35;4.10;99.90
5881;DHT22;2966;52.598;10.928;2022-09-21T05:41:02;4.10;99.90
5881;DHT22;2966;52.598;10.928;2022-09-21T05:43:29;4.20;99.90
5881;DHT22;2966;52.598;10.928;2022-09-21T05:46:01;4.20;99.90
5881;DHT22;2966;52.598;10.928;2022-09-21T05:48:34;4.20;99.90
5881;DHT22;2966;52.598;10.928;2022-09-21T05:51:08;4.30;99.90
5881;DHT22;2966;52.598;10.928;2022-09-21T05:53:45;4.30;99.90
5881;DHT22;2966;52.598;10.928;2022-09-21T05:56:22;4.40;99.90
5881;DHT22;2966;52.598;10.928;2022-09-21T05:58:57;4.40;99.90
5881;DHT22;2966;52.598;10.928;2022-09-21T06:01:37;4.50;99.90
5881;DHT22;2966;52.598;10.928;2022-09-21T06:04:07;4.60;99.90
5881;DHT22;2966;52.598;10.928;2022-09-21T06:06:37;4.80;99.90
5881;DHT22;2966;52.598;10.928;2022-09-21T06:09:04;4.80;99.90
5881;DHT22;2966;52.598;10.928;2022-09-21T06:11:31;4.90;99.90
5881;DHT22;2966;52.598;10.928;2022-09-21T06:13:59;5.00;99.90
5881;DHT22;2966;52.598;10.928;2022-09-21T06:16:26;5.10;99.90
5881;DHT22;2966;52.598;10.928;2022-09-21T06:18:52;5.20;99.90
5881;DHT22;2966;52.598;10.928;2022-09-21T06:21:19;5.20;99.90
5881;DHT22;2966;52.598;10.928;2022-09-21T06:23:47;5.30;99.90
5881;DHT22;2966;52.598;10.928;2022-09-21T06:26:14;5.40;99.90
5881;DHT22;2966;52.598;10.928;2022-09-21T06:28:42;5.60;99.90
5881;DHT22;2966;52.598;10.928;2022-09-21T06:31:08;5.70;99.90
5881;DHT22;2966;52.598;10.928;2022-09-21T06:33:35;5.70;99.90
5881;DHT22;2966;52.598;10.928;2022-09-21T06:36:03;5.80;99.90
5881;DHT22;2966;52.598;10.928;2022-09-21T06:38:29;5.80;99.90
5881;DHT22;2966;52.598;10.928;2022-09-21T06:41:01;5.90;99.90
5881;DHT22;2966;52.598;10.928;2022-09-21T06:43:29;6.00;99.90
5881;DHT22;2966;52.598;10.928;2022-09-21T06:45:57;6.20;99.90
5881;DHT22;2966;52.598;10.928;2022-09-21T06:48:24;6.30;99.90
5881;DHT22;2966;52.598;10.928;2022-09-21T06:50:55;6.40;99.90
5881;DHT22;2966;52.598;10.928;2022-09-21T06:53:22;6.40;99.90
5881;DHT22;2966;52.598;10.928;2022-09-21T06:55:49;6.50;99.90
5881;DHT22;2966;52.598;10.928;2022-09-21T06:58:18;6.60;99.90
5881;DHT22;2966;52.598;10.928;2022-09-21T07:00:45;6.80;99.90
5881;DHT22;2966;52.598;10.928;2022-09-21T07:03:11;6.90;99.90
5881;DHT22;2966;52.598;10.928;2022-09-21T07:05:38;7.00;99.90
5881;DHT22;2966;52.598;10.928;2022-09-21T07:08:05;7.10;99.90
5881;DHT22;2966;52.598;10.928;2022-09-21T07:10:32;7.20;99.90
5881;DHT22;2966;52.598;10.928;2022-09-21T07:13:01;7.30;99.90
5881;DHT22;2966;52.598;10.928;2022-09-21T07:15:30;7.50;99.90
5881;DHT22;2966;52.598;10.928;2022-09-21T07:17:57;7.50;99.90
5881;DHT22;2966;52.598;10.928;2022-09-21T07:20:24;7.60;99.90
5881;DHT22;2966;52.598;10.928;2022-09-21T07:22:51;7.70;99.90
5881;DHT22;2966;52.598;10.928;2022-09-21T07:25:17;7.90;99.90
5881;DHT22;2966;52.598;10.928;2022-09-21T07:27:44;8.00;99.90
5881;DHT22;2966;52.598;10.928;2022-09-21T07:30:12;8.20;99.90
5881;DHT22;2966;52.598;10.928;2022-09-21T07:32:40;8.30;99.90
5881;DHT22;2966;52.598;10.928;2022-09-21T07:35:07;8.40;99.90
5881;DHT22;2966;52.598;10.928;2022-09-21T07:37:34;8.50;99.90
5881;DHT22;2966;52.598;10.928;2022-09-21T07:40:01;8.50;99.90
5881;DHT22;2966;52.598;10.928;2022-09-21T07:42:30;8.70;99.90
5881;DHT22;2966;52.598;10.928;2022-09-21T07:44:57;8.90;99.90
5881;DHT22;2966;52.598;10.928;2022-09-21T07:47:24;9.00;99.90
5881;DHT22;2966;52.598;10.928;2022-09-21T07:49:52;9.10;99.90
5881;DHT22;2966;52.598;10.928;2022-09-21T07:52:19;9.20;99.90
5881;DHT22;2966;52.598;10.928;2022-09-21T07:54:46;9.30;99.90
5881;DHT22;2966;52.598;10.928;2022-09-21T07:57:13;9.50;99.90
5881;DHT22;2966;52.598;10.928;2022-09-21T07:59:57;9.60;99.90
5881;DHT22;2966;52.598;10.928;2022-09-21T08:02:24;9.80;99.90
5881;DHT22;2966;52.598;10.928;2022-09-21T08:04:52;9.80;99.90
5881;DHT22;2966;52.598;10.928;2022-09-21T08:07:19;9.90;99.90
5881;DHT22;2966;52.598;10.928;2022-09-21T08:09:45;10.00;99.90
5881;DHT22;2966;52.598;10.928;2022-09-21T08:12:13;10.10;99.90
5881;DHT22;2966;52.598;10.928;2022-09-21T08:14:43;10.20;99.90
5881;DHT22;2966;52.598;10.928;2022-09-21T08:17:10;10.10;99.90
5881;DHT22;2966;52.598;10.928;2022-09-21T08:19:37;10.30;99.90
5881;DHT22;2966;52.598;10.928;2022-09-21T08:22:05;10.50;99.90
5881;DHT22;2966;52.598;10.928;2022-09-21T08:24:32;10.60;99.90
5881;DHT22;2966;52.598;10.928;2022-09-21T08:26:59;10.70;99.90
5881;DHT22;2966;52.598;10.928;2022-09-21T08:29:26;10.90;99.90
5881;DHT22;2966;52.598;10.928;2022-09-21T08:31:53;10.90;99.90
5881;DHT22;2966;52.598;10.928;2022-09-21T08:34:20;11.00;99.90
5881;DHT22;2966;52.598;10.928;2022-09-21T08:36:48;11.20;99.90
5881;DHT22;2966;52.598;10.928;2022-09-21T08:39:16;11.40;99.90
5881;DHT22;2966;52.598;10.928;2022-09-21T08:42:03;11.50;99.90
5881;DHT22;2966;52.598;10.928;2022-09-21T08:44:38;11.50;99.90
5881;DHT22;2966;52.598;10.928;2022-09-21T08:47:10;11.50;99.90
5881;DHT22;2966;52.598;10.928;2022-09-21T08:49:39;11.70;99.90
5881;DHT22;2966;52.598;10.928;2022-09-21T08:52:11;12.00;99.90
5881;DHT22;2966;52.598;10.928;2022-09-21T08:54:45;12.10;99.90
5881;DHT22;2966;52.598;10.928;2022-09-21T08:57:13;12.10;99.90
5881;DHT22;2966;52.598;10.928;2022-09-21T08:59:43;12.30;99.90
5881;DHT22;2966;52.598;10.928;2022-09-21T09:02:29;12.30;99.90
5881;DHT22;2966;52.598;10.928;2022-09-21T09:05:02;12.30;99.90
5881;DHT22;2966;52.598;10.928;2022-09-21T09:07:47;12.50;99.90
5881;DHT22;2966;52.598;10.928;2022-09-21T09:10:34;12.50;99.90
5881;DHT22;2966;52.598;10.928;2022-09-21T09:13:11;12.70;99.90
5881;DHT22;2966;52.598;10.928;2022-09-21T09:15:54;12.80;99.90
5881;DHT22;2966;52.598;10.928;2022-09-21T09:18:31;12.80;99.90
5881;DHT22;2966;52.598;10.928;2022-09-21T09:21:02;12.90;99.90
5881;DHT22;2966;52.598;10.928;2022-09-21T09:23:32;13.00;99.90
5881;DHT22;2966;52.598;10.928;2022-09-21T09:26:05;13.10;99.90
5881;DHT22;2966;52.598;10.928;2022-09-21T09:28:37;13.30;99.90
5881;DHT22;2966;52.598;10.928;2022-09-21T09:31:12;13.30;99.90
5881;DHT22;2966;52.598;10.928;2022-09-21T09:33:51;13.50;99.90
5881;DHT22;2966;52.598;10.928;2022-09-21T09:36:19;13.60;99.90
5881;DHT22;2966;52.598;10.928;2022-09-21T09:38:53;13.60;99.90
5881;DHT22;2966;52.598;10.928;2022-09-21T09:47:35;13.80;99.90
5881;DHT22;2966;52.598;10.928;2022-09-21T09:50:08;14.10;99.90
5881;DHT22;2966;52.598;10.928;2022-09-21T09:52:37;14.20;99.90
5881;DHT22;2966;52.598;10.928;2022-09-21T09:55:15;14.40;99.90
5881;DHT22;2966;52.598;10.928;2022-09-21T09:57:46;14.60;99.90
5881;DHT22;2966;52.598;10.928;2022-09-21T10:00:15;14.60;99.90
5881;DHT22;2966;52.598;10.928;2022-09-21T10:02:47;14.60;99.90
5881;DHT22;2966;52.598;10.928;2022-09-21T10:05:20;14.80;99.90
5881;DHT22;2966;52.598;10.928;2022-09-21T10:07:48;14.90;99.90
5881;DHT22;2966;52.598;10.928;2022-09-21T10:10:33;15.10;99.90
5881;DHT22;2966;52.598;10.928;2022-09-21T10:13:24;14.90;99.90
5881;DHT22;2966;52.598;10.928;2022-09-21T10:15:54;14.80;99.90
5881;DHT22;2966;52.598;10.928;2022-09-21T10:18:24;14.60;99.90
5881;DHT22;2966;52.598;10.928;2022-09-21T10:20:56;14.50;99.90
5881;DHT22;2966;52.598;10.928;2022-09-21T10:23:24;14.40;99.90
5881;DHT22;2966;52.598;10.928;2022-09-21T10:25:56;14.50;99.90
5881;DHT22;2966;52.598;10.928;2022-09-21T10:28:25;14.50;99.90
5881;DHT22;2966;52.598;10.928;2022-09-21T10:31:08;14.80;99.90
5881;DHT22;2966;52.598;10.928;2022-09-21T10:33:50;15.10;99.90
5881;DHT22;2966;52.598;10.928;2022-09-21T10:36:26;15.10;99.90
5881;DHT22;2966;52.598;10.928;2022-09-21T10:38:53;15.20;99.90
5881;DHT22;2966;52.598;10.928;2022-09-21T10:41:19;15.30;99.90
5881;DHT22;2966;52.598;10.928;2022-09-21T10:43:48;15.40;99.90
5881;DHT22;2966;52.598;10.928;2022-09-21T10:46:16;15.50;99.90
5881;DHT22;2966;52.598;10.928;2022-09-21T10:48:47;15.50;99.90
5881;DHT22;2966;52.598;10.928;2022-09-21T10:51:26;15.70;99.90
5881;DHT22;2966;52.598;10.928;2022-09-21T10:53:54;15.90;99.90
5881;DHT22;2966;52.598;10.928;2022-09-21T10:56:22;16.00;99.90
5881;DHT22;2966;52.598;10.928;2022-09-21T10:59:20;16.30;99.90
5881;DHT22;2966;52.598;10.928;2022-09-21T11:01:51;16.50;99.90
5881;DHT22;2966;52.598;10.928;2022-09-21T11:04:36;16.40;99.90
5881;DHT22;2966;52.598;10.928;2022-09-21T11:07:12;16.60;99.90
5881;DHT22;2966;52.598;10.928;2022-09-21T11:09:44;16.50;99.90
5881;DHT22;2966;52.598;10.928;2022-09-21T11:12:32;16.30;99.90
5881;DHT22;2966;52.598;10.928;2022-09-21T11:15:19;16.00;99.90
5881;DHT22;2966;52.598;10.928;2022-09-21T11:17:54;15.90;99.90
5881;DHT22;2966;52.598;10.928;2022-09-21T11:20:29;16.00;99.90
5881;DHT22;2966;52.598;10.928;2022-09-21T11:23:03;16.00;99.90
5881;DHT22;2966;52.598;10.928;2022-09-21T11:25:36;16.00;99.90
5881;DHT22;2966;52.598;10.928;2022-09-21T11:28:13;16.00;99.90
5881;DHT22;2966;52.598;10.928;2022-09-21T11:30:55;16.20;99.90
5881;DHT22;2966;52.598;10.928;2022-09-21T11:33:38;16.20;99.90
5881;DHT22;2966;52.598;10.928;2022-09-21T11:36:12;16.30;99.90
5881;DHT22;2966;52.598;10.928;2022-09-21T11:38:53;16.20;99.90
5881;DHT22;2966;52.598;10.928;2022-09-21T11:41:34;16.30;99.90
5881;DHT22;2966;52.598;10.928;2022-09-21T11:44:19;16.30;99.90
5881;DHT22;2966;52.598;10.928;2022-09-21T11:46:57;16.30;99.90
5881;DHT22;2966;52.598;10.928;2022-09-21T11:49:42;16.40;99.90
5881;DHT22;2966;52.598;10.928;2022-09-21T11:52:25;16.40;99.90
5881;DHT22;2966;52.598;10.928;2022-09-21T11:55:19;16.50;99.90
5881;DHT22;2966;52.598;10.928;2022-09-21T11:57:55;16.70;99.90
5881;DHT22;2966;52.598;10.928;2022-09-21T12:00:25;16.60;99.90
5881;DHT22;2966;52.598;10.928;2022-09-21T12:03:39;16.70;99.90
5881;DHT22;2966;52.598;10.928;2022-09-21T12:06:21;16.70;99.90
5881;DHT22;2966;52.598;10.928;2022-09-21T12:09:01;16.70;99.90
5881;DHT22;2966;52.598;10.928;2022-09-21T12:11:38;16.70;99.90
5881;DHT22;2966;52.598;10.928;2022-09-21T12:14:15;16.80;99.90
5881;DHT22;2966;52.598;10.928;2022-09-21T12:16:52;16.90;99.90
5881;DHT22;2966;52.598;10.928;2022-09-21T12:19:28;16.80;99.90
5881;DHT22;2966;52.598;10.928;2022-09-21T12:22:01;16.70;99.90
5881;DHT22;2966;52.598;10.928;2022-09-21T12:24:32;16.80;99.90
5881;DHT22;2966;52.598;10.928;2022-09-21T12:27:03;16.80;99.90
5881;DHT22;2966;52.598;10.928;2022-09-21T12:29:35;16.90;99.90
5881;DHT22;2966;52.598;10.928;2022-09-21T12:32:06;17.10;99.90
5881;DHT22;2966;52.598;10.928;2022-09-21T12:34:40;17.00;99.90
5881;DHT22;2966;52.598;10.928;2022-09-21T12:37:12;16.90;99.90
5881;DHT22;2966;52.598;10.928;2022-09-21T12:39:44;16.90;99.90
5881;DHT22;2966;52.598;10.928;2022-09-21T12:42:24;16.90;99.90
5881;DHT22;2966;52.598;10.928;2022-09-21T12:44:55;16.70;99.90
5881;DHT22;2966;52.598;10.928;2022-09-21T12:47:28;16.50;99.90
5881;DHT22;2966;52.598;10.928;2022-09-21T12:50:05;16.30;99.90
5881;DHT22;2966;52.598;10.928;2022-09-21T12:52:34;16.40;99.90
5881;DHT22;2966;52.598;10.928;2022-09-21T12:55:18;16.40;99.90
5881;DHT22;2966;52.598;10.928;2022-09-21T12:57:54;16.50;99.90
5881;DHT22;2966;52.598;10.928;2022-09-21T13:00:27;16.60;99.90
5881;DHT22;2966;52.598;10.928;2022-09-21T13:02:59;16.80;99.90
5881;DHT22;2966;52.598;10.928;2022-09-21T13:05:35;17.00;99.90
5881;DHT22;2966;52.598;10.928;2022-09-21T13:08:09;16.90;99.90
5881;DHT22;2966;52.598;10.928;2022-09-21T13:10:41;16.90;99.90
5881;DHT22;2966;52.598;10.928;2022-09-21T13:13:18;16.90;99.90
5881;DHT22;2966;52.598;10.928;2022-09-21T13:15:49;16.70;99.90
5881;DHT22;2966;52.598;10.928;2022-09-21T13:18:18;16.60;99.90
5881;DHT22;2966;52.598;10.928;2022-09-21T13:20:49;16.60;99.90
5881;DHT22;2966;52.598;10.928;2022-09-21T13:23:22;16.40;99.90
5881;DHT22;2966;52.598;10.928;2022-09-21T13:25:59;16.30;99.90
5881;DHT22;2966;52.598;10.928;2022-09-21T13:28:40;16.30;99.90
5881;DHT22;2966;52.598;10.928;2022-09-21T13:34:31;16.30;99.90
5881;DHT22;2966;52.598;10.928;2022-09-21T13:37:33;16.40;99.90
5881;DHT22;2966;52.598;10.928;2022-09-21T13:43:22;16.50;99.90
5881;DHT22;2966;52.598;10.928;2022-09-21T13:45:55;16.60;99.90
5881;DHT22;2966;52.598;10.928;2022-09-21T13:48:25;16.60;99.90
5881;DHT22;2966;52.598;10.928;2022-09-21T13:51:05;16.50;99.90
5881;DHT22;2966;52.598;10.928;2022-09-21T13:53:37;16.50;99.90
5881;DHT22;2966;52.598;10.928;2022-09-21T13:56:08;16.60;99.90
5881;DHT22;2966;52.598;10.928;2022-09-21T13:58:43;16.70;99.90
5881;DHT22;2966;52.598;10.928;2022-09-21T14:01:16;16.70;99.90
5881;DHT22;2966;52.598;10.928;2022-09-21T14:03:46;16.60;99.90
5881;DHT22;2966;52.598;10.928;2022-09-21T14:06:16;16.60;99.90
5881;DHT22;2966;52.598;10.928;2022-09-21T14:08:52;16.70;99.90
5881;DHT22;2966;52.598;10.928;2022-09-21T14:11:26;16.90;99.90
5881;DHT22;2966;52.598;10.928;2022-09-21T14:14:03;17.00;99.90
5881;DHT22;2966;52.598;10.928;2022-09-21T14:16:51;17.00;99.90
5881;DHT22;2966;52.598;10.928;2022-09-21T14:19:57;16.90;99.90
5881;DHT22;2966;52.598;10.928;2022-09-21T14:22:44;16.80;99.90
5881;DHT22;2966;52.598;10.928;2022-09-21T14:25:49;16.80;99.90
5881;DHT22;2966;52.598;10.928;2022-09-21T14:28:30;16.60;99.90
5881;DHT22;2966;52.598;10.928;2022-09-21T14:31:02;16.50;99.90
5881;DHT22;2966;52.598;10.928;2022-09-21T14:33:42;16.50;99.90
5881;DHT22;2966;52.598;10.928;2022-09-21T14:36:13;16.50;99.90
5881;DHT22;2966;52.598;10.928;2022-09-21T14:38:44;16.40;99.90
5881;DHT22;2966;52.598;10.928;2022-09-21T14:41:19;16.40;99.90
5881;DHT22;2966;52.598;10.928;2022-09-21T14:43:50;16.30;99.90
5881;DHT22;2966;52.598;10.928;2022-09-21T14:52:20;16.40;99.90
5881;DHT22;2966;52.598;10.928;2022-09-21T14:54:54;16.30;99.90
5881;DHT22;2966;52.598;10.928;2022-09-21T14:57:43;16.30;99.90
5881;DHT22;2966;52.598;10.928;2022-09-21T15:00:17;16.20;99.90
5881;DHT22;2966;52.598;10.928;2022-09-21T15:02:52;15.80;99.90
5881;DHT22;2966;52.598;10.928;2022-09-21T15:05:28;15.60;99.90
5881;DHT22;2966;52.598;10.928;2022-09-21T15:08:10;15.40;99.90
5881;DHT22;2966;52.598;10.928;2022-09-21T15:11:05;15.10;99.90
5881;DHT22;2966;52.598;10.928;2022-09-21T15:13:46;14.90;99.90
5881;DHT22;2966;52.598;10.928;2022-09-21T15:16:34;14.70;99.90
5881;DHT22;2966;52.598;10.928;2022-09-21T15:19:13;14.70;99.90
5881;DHT22;2966;52.598;10.928;2022-09-21T15:21:42;14.60;99.90
5881;DHT22;2966;52.598;10.928;2022-09-21T15:24:17;14.50;99.90
5881;DHT22;2966;52.598;10.928;2022-09-21T15:26:45;14.60;99.90
5881;DHT22;2966;52.598;10.928;2022-09-21T15:29:22;14.60;99.90
5881;DHT22;2966;52.598;10.928;2022-09-21T15:31:50;14.60;99.90
5881;DHT22;2966;52.598;10.928;2022-09-21T15:34:17;14.40;99.90
5881;DHT22;2966;52.598;10.928;2022-09-21T15:36:44;14.30;99.90
5881;DHT22;2966;52.598;10.928;2022-09-21T15:39:27;14.20;99.90
5881;DHT22;2966;52.598;10.928;2022-09-21T15:42:17;14.10;99.90
5881;DHT22;2966;52.598;10.928;2022-09-21T15:44:48;14.00;99.90
5881;DHT22;2966;52.598;10.928;2022-09-21T15:47:19;13.90;99.90
5881;DHT22;2966;52.598;10.928;2022-09-21T15:49:47;14.00;99.90
5881;DHT22;2966;52.598;10.928;2022-09-21T15:52:22;14.10;99.90
5881;DHT22;2966;52.598;10.928;2022-09-21T15:54:54;14.30;99.90
5881;DHT22;2966;52.598;10.928;2022-09-21T15:57:31;14.40;99.90
5881;DHT22;2966;52.598;10.928;2022-09-21T16:00:05;14.60;99.90
5881;DHT22;2966;52.598;10.928;2022-09-21T16:02:37;14.50;99.90
5881;DHT22;2966;52.598;10.928;2022-09-21T16:05:07;14.30;99.90
5881;DHT22;2966;52.598;10.928;2022-09-21T16:07:38;14.10;99.90
5881;DHT22;2966;52.598;10.928;2022-09-21T16:10:36;13.90;99.90
5881;DHT22;2966;52.598;10.928;2022-09-21T16:13:08;13.80;99.90
5881;DHT22;2966;52.598;10.928;2022-09-21T16:16:00;13.70;99.90
5881;DHT22;2966;52.598;10.928;2022-09-21T16:18:29;13.60;99.90
5881;DHT22;2966;52.598;10.928;2022-09-21T16:21:08;13.50;99.90
5881;DHT22;2966;52.598;10.928;2022-09-21T16:23:35;13.40;99.90
5881;DHT22;2966;52.598;10.928;2022-09-21T16:26:04;13.30;99.90
5881;DHT22;2966;52.598;10.928;2022-09-21T16:28:37;13.20;99.90
5881;DHT22;2966;52.598;10.928;2022-09-21T16:31:33;13.20;99.90
5881;DHT22;2966;52.598;10.928;2022-09-21T16:34:22;13.10;99.90
5881;DHT22;2966;52.598;10.928;2022-09-21T16:36:57;13.00;99.90
5881;DHT22;2966;52.598;10.928;2022-09-21T16:39:26;12.90;99.90
5881;DHT22;2966;52.598;10.928;2022-09-21T16:42:00;12.80;99.90
5881;DHT22;2966;52.598;10.928;2022-09-21T16:44:27;12.70;99.90
5881;DHT22;2966;52.598;10.928;2022-09-21T16:46:58;12.70;99.90